Time;durP1;ratioP1;P1;durP2;ratioP2;P2;SDS_P1;SDS_P2;PMS_P1;PMS_P2;Temp;Humidity;BMP_temperature;BMP_pressure;BME280_temperature;BME280_humidity;BME280_pressure;Samples;Min_cycle;Max_cycle;Signal;HPM_P1;HPM_P2
2021/09/09 00:04:42;;;;;;;24.50;14.33;;;15.60;1.00;;;;;;5015163;28;20403;-81
2021/09/09 00:07:19;;;;;;;24.17;13.10;;;15.50;1.00;;;;;;5032075;28;20419;-78
2021/09/09 00:13:30;;;;;;;26.70;14.03;;;15.50;1.00;;;;;;5015144;28;20368;-80
2021/09/09 00:22:40;;;;;;;25.17;13.10;;;15.50;1.00;;;;;;5019739;28;20374;-77
2021/09/09 00:25:30;;;;;;;25.60;12.70;;;15.50;1.00;;;;;;5033808;28;20415;-76
2021/09/09 00:27:56;;;;;;;22.63;12.90;;;15.50;1.00;;;;;;5021037;28;20901;-76
2021/09/09 00:30:55;;;;;;;19.33;12.47;;;15.40;1.00;;;;;;5028655;28;20432;-76
2021/09/09 00:33:48;;;;;;;20.70;13.13;;;15.40;1.00;;;;;;5014991;28;20158;-76
2021/09/09 00:36:18;;;;;;;22.87;12.93;;;15.40;1.00;;;;;;5014852;28;20451;-76
2021/09/09 00:39:06;;;;;;;23.67;12.83;;;15.40;1.00;;;;;;5021719;28;20456;-77
2021/09/09 00:41:33;;;;;;;21.67;12.60;;;15.40;1.00;;;;;;5034595;28;20369;-77
2021/09/09 00:44:01;;;;;;;23.87;13.23;;;15.40;1.00;;;;;;5034597;28;20386;-76
2021/09/09 00:49:54;;;;;;;32.13;14.93;;;15.40;1.00;;;;;;5033651;28;20937;-76
2021/09/09 00:52:20;;;;;;;28.20;12.97;;;16.50;1.00;;;;;;5034645;28;20387;-76
2021/09/09 00:58:08;;;;;;;27.47;13.17;;;15.40;1.00;;;;;;5034082;28;20171;-80
2021/09/09 01:00:54;;;;;;;21.30;12.80;;;15.30;1.00;;;;;;5033528;28;20411;-80
2021/09/09 01:04:06;;;;;;;29.83;12.80;;;15.40;1.00;;;;;;5033429;28;20889;-80
2021/09/09 01:09:57;;;;;;;26.23;12.13;;;15.30;1.00;;;;;;5022057;28;20409;-76
2021/09/09 01:12:23;;;;;;;23.63;13.57;;;15.30;1.00;;;;;;5034222;28;20370;-76
2021/09/09 01:14:48;;;;;;;18.50;12.30;;;15.30;1.00;;;;;;5031355;28;20402;-76
2021/09/09 01:17:18;;;;;;;21.73;13.07;;;15.30;1.00;;;;;;5014297;28;20215;-76
2021/09/09 01:19:48;;;;;;;23.50;12.43;;;15.30;1.00;;;;;;5024487;28;20172;-76
2021/09/09 01:22:18;;;;;;;22.50;12.70;;;15.30;1.00;;;;;;5034076;28;20721;-76
2021/09/09 01:28:06;;;;;;;20.53;12.10;;;15.20;1.00;;;;;;5027100;28;20922;-80
2021/09/09 01:33:55;;;;;;;27.43;12.33;;;15.20;1.00;;;;;;5033586;28;20164;-80
2021/09/09 01:36:21;;;;;;;18.33;11.83;;;15.20;1.00;;;;;;5033421;28;20422;-80
2021/09/09 01:38:54;;;;;;;23.40;12.80;;;15.20;1.00;;;;;;5033956;28;20399;-76
2021/09/09 01:41:48;;;;;;;23.07;13.53;;;15.20;1.00;;;;;;5033232;28;20415;-76
2021/09/09 01:44:14;;;;;;;17.80;12.37;;;15.20;1.00;;;;;;5033413;28;20399;-76
2021/09/09 01:47:06;;;;;;;27.93;12.33;;;15.10;1.00;;;;;;5019554;28;20417;-76
2021/09/09 01:49:49;;;;;;;20.47;12.63;;;15.10;1.00;;;;;;5014130;28;20396;-76
2021/09/09 01:52:30;;;;;;;18.67;11.67;;;15.10;1.00;;;;;;5030275;28;20473;-76
2021/09/09 01:55:07;;;;;;;21.30;12.33;;;15.20;1.00;;;;;;5033570;28;20419;-76
2021/09/09 01:58:06;;;;;;;17.47;12.13;;;15.20;1.00;;;;;;5033800;28;20403;-76
2021/09/09 02:00:32;;;;;;;19.00;11.43;;;15.20;1.00;;;;;;5033290;28;20387;-76
2021/09/09 02:03:42;;;;;;;23.47;11.87;;;15.20;1.00;;;;;;5032597;28;20390;-76
2021/09/09 02:06:13;;;;;;;17.40;11.57;;;15.30;1.00;;;;;;5024237;28;20690;-76
2021/09/09 02:12:50;;;;;;;22.10;11.10;;;15.40;1.00;;;;;;5021239;28;20975;-80
2021/09/09 02:15:17;;;;;;;19.73;11.00;;;15.50;1.00;;;;;;5014891;28;20464;-79
2021/09/09 02:18:00;;;;;;;21.30;11.40;;;15.50;1.00;;;;;;5025480;28;20466;-80
2021/09/09 02:23:48;;;;;;;17.57;11.63;;;;;;;;;;5030072;28;20388;-76
2021/09/09 02:26:14;;;;;;;20.73;10.83;;;15.60;1.00;;;;;;5031442;28;20408;-76
2021/09/09 02:28:48;;;;;;;23.10;11.90;;;15.80;1.00;;;;;;5034980;28;20793;-76
2021/09/09 02:31:24;;;;;;;16.60;10.80;;;15.80;1.00;;;;;;5036821;28;20172;-76
2021/09/09 02:33:54;;;;;;;19.13;11.77;;;15.70;1.00;;;;;;5036889;28;20377;-76
2021/09/09 02:36:20;;;;;;;25.80;11.70;;;16.70;1.00;;;;;;5036243;28;20429;-76
2021/09/09 02:42:07;;;;;;;19.20;10.97;;;15.70;1.00;;;;;;5035775;28;20238;-80
2021/09/09 02:48:30;;;;;;;17.30;11.43;;;15.70;1.00;;;;;;5019238;28;20231;-80
2021/09/09 02:54:17;;;;;;;18.37;11.03;;;15.60;1.00;;;;;;5016858;28;20378;-80
2021/09/09 03:03:27;;;;;;;20.00;11.47;;;15.50;1.00;;;;;;5036064;28;20368;-80
2021/09/09 03:06:00;;;;;;;29.03;11.83;;;15.50;1.00;;;;;;5036099;28;20490;-80
2021/09/09 03:08:54;;;;;;;17.67;11.03;;;15.50;1.00;;;;;;5036025;28;20657;-80
2021/09/09 03:11:26;;;;;;;20.40;11.07;;;15.50;1.00;;;;;;5036378;28;20406;-76
2021/09/09 03:14:06;;;;;;;18.97;12.20;;;15.40;1.00;;;;;;5035895;28;20407;-76
2021/09/09 03:16:32;;;;;;;24.27;11.70;;;15.40;1.00;;;;;;5035466;28;21016;-76
2021/09/09 03:18:58;;;;;;;17.30;10.90;;;15.40;1.00;;;;;;5030983;28;20510;-76
2021/09/09 03:22:18;;;;;;;18.33;10.50;;;15.40;1.00;;;;;;5025006;28;20264;-76
2021/09/09 03:24:54;;;;;;;22.03;11.00;;;15.20;1.00;;;;;;5036171;28;20184;-77
2021/09/09 03:27:20;;;;;;;30.33;12.17;;;15.20;1.00;;;;;;5028291;28;20390;-77
2021/09/09 03:29:48;;;;;;;20.20;11.00;;;15.30;1.00;;;;;;5016673;28;20397;-76
2021/09/09 03:32:18;;;;;;;21.27;11.60;;;15.20;1.00;;;;;;5021012;28;20627;-76
2021/09/09 03:34:48;;;;;;;17.90;11.30;;;15.20;1.00;;;;;;5035863;28;20756;-76
2021/09/09 03:37:18;;;;;;;19.67;12.00;;;15.60;1.00;;;;;;5034278;28;20846;-76
2021/09/09 03:40:30;;;;;;;17.30;10.57;;;15.10;1.00;;;;;;5036187;28;20838;-76
2021/09/09 03:43:24;;;;;;;18.07;11.10;;;15.00;1.00;;;;;;5035033;28;20404;-76
2021/09/09 03:45:54;;;;;;;23.80;11.80;;;15.00;1.00;;;;;;5021030;28;20978;-76
2021/09/09 03:48:36;;;;;;;16.43;10.80;;;14.90;1.00;;;;;;5015929;28;20520;-76
2021/09/09 03:51:18;;;;;;;19.50;10.93;;;15.00;1.00;;;;;;5015588;28;20388;-76
2021/09/09 03:53:54;;;;;;;16.80;11.70;;;14.90;1.00;;;;;;5030847;28;20423;-76
2021/09/09 03:59:42;;;;;;;19.43;11.10;;;14.90;1.00;;;;;;5015564;28;20455;-80
2021/09/09 04:02:54;;;;;;;21.90;11.97;;;14.80;1.00;;;;;;5015488;28;20475;-80
2021/09/09 04:05:31;;;;;;;20.83;11.23;;;14.80;1.00;;;;;;5016579;28;20173;-80
2021/09/09 04:08:30;;;;;;;20.83;10.60;;;14.80;1.00;;;;;;5022811;28;20423;-80
2021/09/09 04:11:00;;;;;;;19.20;10.80;;;14.70;1.00;;;;;;5035151;28;20390;-76
2021/09/09 04:13:30;;;;;;;22.07;12.67;;;14.70;1.00;;;;;;5034640;28;20415;-76
2021/09/09 04:15:56;;;;;;;18.80;11.57;;;14.70;1.00;;;;;;5035301;28;20466;-75
2021/09/09 04:19:12;;;;;;;17.43;11.40;;;14.60;1.00;;;;;;5032999;28;20748;-76
2021/09/09 04:21:42;;;;;;;28.50;11.57;;;14.60;1.00;;;;;;5026261;28;20177;-78
2021/09/09 04:24:31;;;;;;;18.73;11.80;;;14.50;1.00;;;;;;5032346;28;20882;-75
2021/09/09 04:27:01;;;;;;;20.30;12.67;;;14.50;1.00;;;;;;5023745;28;20876;-76
2021/09/09 04:29:49;;;;;;;20.03;11.80;;;14.50;1.00;;;;;;5030409;28;20409;-77
2021/09/09 04:32:54;;;;;;;17.40;11.40;;;14.50;1.00;;;;;;5033463;28;20477;-76
2021/09/09 04:35:20;;;;;;;18.90;11.60;;;14.50;1.00;;;;;;5033862;28;20450;-76
2021/09/09 04:37:55;;;;;;;21.43;11.63;;;14.50;1.00;;;;;;5033716;28;20424;-76
2021/09/09 04:40:20;;;;;;;20.43;12.20;;;14.40;1.00;;;;;;5034737;28;20160;-76
2021/09/09 04:43:00;;;;;;;20.40;11.40;;;14.40;1.00;;;;;;5033894;28;20411;-77
2021/09/09 04:45:26;;;;;;;19.57;11.83;;;14.40;1.00;;;;;;5032733;28;20175;-76
2021/09/09 04:48:12;;;;;;;19.97;12.43;;;14.40;1.00;;;;;;5034366;28;20411;-76
2021/09/09 04:50:43;;;;;;;20.70;12.43;;;14.30;1.00;;;;;;5034337;28;20196;-76
2021/09/09 04:53:08;;;;;;;21.17;12.90;;;14.30;1.00;;;;;;5030340;28;20431;-76
2021/09/09 04:56:00;;;;;;;20.00;13.10;;;14.30;1.00;;;;;;5032643;28;20478;-80
2021/09/09 04:58:42;;;;;;;24.83;12.90;;;14.30;1.00;;;;;;5033824;28;20184;-80
2021/09/09 05:02:00;;;;;;;22.87;11.90;;;14.20;1.00;;;;;;5018216;28;20416;-80
2021/09/09 05:04:30;;;;;;;22.10;12.07;;;14.30;1.00;;;;;;5014139;28;20387;-81
2021/09/09 05:07:06;;;;;;;23.60;13.20;;;14.30;1.00;;;;;;5033845;28;20848;-80
2021/09/09 05:10:01;;;;;;;20.33;12.77;;;14.20;1.00;;;;;;5032898;28;20397;-80
2021/09/09 05:12:27;;;;;;;27.00;13.37;;;;;;;;;;5034537;28;20367;-76
2021/09/09 05:15:01;;;;;;;24.00;12.70;;;14.30;1.00;;;;;;5034097;28;20394;-76
2021/09/09 05:17:31;;;;;;;21.07;11.63;;;14.40;1.00;;;;;;5033639;28;20443;-76
2021/09/09 05:20:07;;;;;;;24.93;12.63;;;14.40;1.00;;;;;;5023134;28;20493;-76
2021/09/09 05:22:37;;;;;;;20.93;12.23;;;14.40;1.00;;;;;;5016485;28;20411;-77
2021/09/09 05:25:42;;;;;;;21.10;12.17;;;14.50;1.00;;;;;;5033886;28;20390;-77
2021/09/09 05:29:00;;;;;;;21.97;12.10;;;14.50;1.00;;;;;;5023854;28;20405;-82
2021/09/09 05:31:30;;;;;;;21.03;11.93;;;14.70;1.00;;;;;;5025886;28;20428;-83
2021/09/09 05:34:30;;;;;;;20.60;11.90;;;14.70;1.00;;;;;;5033276;28;20897;-83
2021/09/09 05:37:30;;;;;;;19.63;11.83;;;14.90;1.00;;;;;;5032757;28;20429;-83
2021/09/09 05:40:24;;;;;;;27.80;12.60;;;14.90;1.00;;;;;;5019370;28;20495;-84
2021/09/09 05:43:00;;;;;;;19.70;11.23;;;15.00;1.00;;;;;;5023457;28;20999;-77
2021/09/09 05:45:31;;;;;;;23.10;11.20;;;15.10;1.00;;;;;;5033613;28;20403;-76
2021/09/09 05:48:13;;;;;;;23.63;11.73;;;15.10;1.00;;;;;;5030813;28;20416;-77
2021/09/09 05:51:07;;;;;;;26.13;12.80;;;15.20;1.00;;;;;;5017588;28;20425;-76
2021/09/09 05:53:37;;;;;;;18.90;11.07;;;15.30;1.00;;;;;;5028659;28;20377;-76
2021/09/09 05:56:02;;;;;;;23.10;11.40;;;15.40;1.00;;;;;;5037249;28;20433;-77
2021/09/09 05:58:30;;;;;;;21.83;12.10;;;15.50;1.00;;;;;;5036970;28;20470;-76
2021/09/09 06:00:56;;;;;;;17.97;10.80;;;15.50;1.00;;;;;;5037512;28;20707;-76
2021/09/09 06:03:48;;;;;;;23.70;12.27;;;15.60;1.00;;;;;;5036900;28;20386;-76
2021/09/09 06:06:54;;;;;;;16.43;11.13;;;15.70;1.00;;;;;;5035552;28;20449;-76
2021/09/09 06:09:30;;;;;;;18.70;11.77;;;15.80;1.00;;;;;;5037532;28;20442;-77
2021/09/09 06:12:00;;;;;;;20.33;11.57;;;15.90;1.00;;;;;;5038032;28;20374;-77
2021/09/09 06:14:27;;;;;;;23.10;11.90;;;16.00;1.00;;;;;;5037188;28;20373;-77
2021/09/09 06:16:52;;;;;;;24.47;11.73;;;16.00;1.00;;;;;;5036140;28;20470;-76
2021/09/09 06:19:31;;;;;;;18.20;11.00;;;16.10;1.00;;;;;;5031408;28;20396;-77
2021/09/09 06:22:13;;;;;;;21.80;10.40;;;16.20;1.00;;;;;;5030427;28;20198;-77
2021/09/09 06:24:38;;;;;;;19.17;11.37;;;16.20;1.00;;;;;;5019569;28;20405;-76
2021/09/09 06:27:04;;;;;;;18.33;11.23;;;16.20;1.00;;;;;;5024782;28;20374;-80
2021/09/09 06:29:31;;;;;;;19.07;11.83;;;16.30;1.00;;;;;;5017060;28;20215;-80
2021/09/09 06:32:00;;;;;;;14.33;9.90;;;16.40;1.00;;;;;;5031591;28;20172;-80
2021/09/09 06:34:31;;;;;;;19.20;11.87;;;16.50;1.00;;;;;;5035542;28;20783;-80
2021/09/09 06:36:57;;;;;;;19.73;12.27;;;16.50;1.00;;;;;;5028946;28;20430;-80
2021/09/09 06:39:23;;;;;;;16.90;11.40;;;16.60;1.00;;;;;;5030644;28;20429;-80
2021/09/09 06:41:49;;;;;;;18.10;11.80;;;16.70;1.00;;;;;;5035324;28;20945;-77
2021/09/09 06:44:15;;;;;;;18.40;11.70;;;16.80;1.00;;;;;;5035923;28;20532;-77
2021/09/09 06:46:48;;;;;;;16.47;10.40;;;16.90;1.00;;;;;;5035947;28;20612;-77
2021/09/09 06:49:30;;;;;;;20.60;12.77;;;17.00;1.00;;;;;;5036367;28;20399;-76
2021/09/09 06:52:30;;;;;;;17.53;10.93;;;17.20;1.00;;;;;;5034861;28;20738;-76
2021/09/09 06:55:30;;;;;;;16.43;11.37;;;17.50;1.00;;;;;;5036539;28;20372;-76
2021/09/09 06:58:30;;;;;;;20.10;11.07;;;17.60;1.00;;;;;;5027778;28;20410;-80
2021/09/09 07:05:00;;;;;;;17.43;11.40;;;17.90;1.00;;;;;;5035731;28;20452;-79
2021/09/09 07:07:30;;;;;;;17.90;11.20;;;18.10;1.00;;;;;;5036314;28;20382;-80
2021/09/09 07:10:00;;;;;;;16.30;10.40;;;18.20;1.00;;;;;;5033194;28;20462;-79
2021/09/09 07:12:30;;;;;;;19.60;10.43;;;18.30;1.00;;;;;;5035735;28;20449;-80
2021/09/09 07:15:30;;;;;;;19.57;11.20;;;18.50;1.00;;;;;;5035782;28;20904;-80
2021/09/09 07:18:30;;;;;;;14.30;10.30;;;18.70;1.00;;;;;;5035758;28;20396;-80
2021/09/09 07:21:00;;;;;;;18.43;11.00;;;18.90;1.00;;;;;;5021747;28;20457;-79
2021/09/09 07:23:31;;;;;;;16.47;10.43;;;19.00;1.00;;;;;;5028743;28;20465;-80
2021/09/09 07:26:00;;;;;;;15.80;9.30;;;19.10;1.00;;;;;;5035757;28;20391;-80
2021/09/09 07:28:30;;;;;;;17.50;10.33;;;19.20;1.00;;;;;;5023988;28;20810;-77
2021/09/09 07:31:12;;;;;;;19.57;11.63;;;19.30;1.00;;;;;;5036048;28;20404;-77
2021/09/09 07:34:12;;;;;;;15.57;9.70;;;19.40;1.00;;;;;;5035063;28;20479;-77
2021/09/09 07:36:55;;;;;;;19.27;10.37;;;19.40;1.00;;;;;;5022782;28;20451;-77
2021/09/09 07:39:31;;;;;;;15.77;10.63;;;19.50;1.00;;;;;;5032331;28;20426;-77
2021/09/09 07:42:00;;;;;;;14.27;10.10;;;19.60;1.00;;;;;;5034128;28;20527;-82
2021/09/09 07:44:26;;;;;;;21.03;10.50;;;19.70;1.00;;;;;;5031950;28;20397;-80
2021/09/09 07:47:01;;;;;;;19.40;11.37;;;19.80;1.00;;;;;;5018746;28;20996;-79
2021/09/09 07:50:00;;;;;;;16.97;11.10;;;19.90;1.00;;;;;;5029982;28;20178;-79
2021/09/09 07:52:30;;;;;;;17.47;10.47;;;20.00;1.00;;;;;;5035430;28;20507;-80
2021/09/09 07:55:01;;;;;;;20.50;10.80;;;20.20;1.00;;;;;;5034951;28;20472;-79
2021/09/09 07:57:30;;;;;;;17.57;11.03;;;20.20;1.00;;;;;;5035098;28;20877;-79
2021/09/09 08:00:30;;;;;;;17.90;11.03;;;20.30;1.00;;;;;;5032066;28;20416;-79
2021/09/09 08:03:30;;;;;;;19.80;11.00;;;20.40;1.00;;;;;;5035097;28;20416;-79
2021/09/09 08:06:00;;;;;;;23.60;11.97;;;20.50;1.00;;;;;;5034516;28;20400;-79
2021/09/09 08:08:31;;;;;;;16.23;9.87;;;20.60;1.00;;;;;;5026448;28;20986;-79
2021/09/09 08:11:00;;;;;;;18.70;10.70;;;20.70;1.00;;;;;;5014923;28;20390;-80
2021/09/09 08:13:31;;;;;;;26.13;11.90;;;20.80;1.00;;;;;;5015060;28;20881;-79
2021/09/09 08:16:02;;;;;;;19.13;11.20;;;;;;;;;;5014726;28;20449;-79
2021/09/09 08:18:31;;;;;;;24.63;13.00;;;20.90;1.00;;;;;;5022670;28;20427;-79
2021/09/09 08:21:07;;;;;;;20.27;11.43;;;21.00;1.00;;;;;;5024457;28;20458;-79
2021/09/09 08:24:00;;;;;;;17.80;10.70;;;21.10;1.00;;;;;;5022119;28;20849;-79
2021/09/09 08:26:31;;;;;;;18.37;11.47;;;21.20;1.00;;;;;;5034507;28;20400;-79
2021/09/09 08:29:15;;;;;;;17.30;11.03;;;21.30;1.00;;;;;;5034163;28;20456;-77
2021/09/09 08:31:41;;;;;;;22.43;11.77;;;21.40;1.00;;;;;;5034157;28;20503;-77
2021/09/09 08:34:26;;;;;;;32.17;11.87;;;21.50;1.00;;;;;;5034820;28;20538;-77
2021/09/09 08:36:51;;;;;;;18.70;10.90;;;21.60;1.00;;;;;;5022405;28;20241;-77
2021/09/09 08:39:25;;;;;;;20.00;11.40;;;21.80;1.00;;;;;;5027873;28;20853;-77
2021/09/09 08:42:03;;;;;;;25.20;11.53;;;21.90;1.00;;;;;;5033771;28;20722;-77
2021/09/09 08:44:31;;;;;;;24.50;13.60;;;21.90;1.00;;;;;;5034184;28;20498;-79
2021/09/09 08:47:01;;;;;;;27.43;12.50;;;22.00;1.00;;;;;;5033541;28;20433;-79
2021/09/09 08:49:48;;;;;;;24.27;11.40;;;22.10;1.00;;;;;;5024661;28;20433;-79
2021/09/09 08:52:14;;;;;;;23.33;11.37;;;22.10;1.00;;;;;;5022676;28;20460;-79
2021/09/09 08:55:30;;;;;;;15.67;10.00;;;22.20;1.00;;;;;;5034101;28;20387;-79
2021/09/09 08:57:57;;;;;;;15.93;10.30;;;22.30;1.00;;;;;;5034480;28;20403;-77
2021/09/09 09:01:04;;;;;;;19.57;10.63;;;22.40;1.00;;;;;;5033332;28;20468;-77
2021/09/09 09:03:57;;;;;;;16.73;10.80;;;22.50;1.00;;;;;;5022451;28;20409;-78
2021/09/09 09:06:32;;;;;;;20.77;11.50;;;22.50;1.00;;;;;;5017201;28;20491;-79
2021/09/09 09:09:20;;;;;;;27.20;10.70;;;22.60;1.00;;;;;;5014684;28;20437;-78
2021/09/09 09:12:30;;;;;;;18.40;9.73;;;22.80;1.00;;;;;;5013976;28;20396;-77
2021/09/09 09:15:11;;;;;;;15.40;8.77;;;22.90;1.00;;;;;;5030815;28;20445;-77
2021/09/09 09:18:07;;;;;;;17.57;9.80;;;23.00;1.00;;;;;;5031060;28;20513;-77
2021/09/09 09:20:48;;;;;;;22.33;9.93;;;23.10;1.00;;;;;;5015937;28;20486;-77
2021/09/09 09:23:21;;;;;;;16.43;10.53;;;23.30;1.00;;;;;;5022138;28;20869;-77
2021/09/09 09:26:03;;;;;;;13.30;9.23;;;23.30;1.00;;;;;;5013875;28;20408;-77
2021/09/09 09:28:49;;;;;;;31.87;9.93;;;23.40;1.00;;;;;;5014221;28;20959;-77
2021/09/09 09:31:19;;;;;;;20.53;10.07;;;23.50;1.00;;;;;;5029367;28;20462;-78
2021/09/09 09:33:47;;;;;;;13.03;9.20;;;23.60;1.00;;;;;;5032775;28;20888;-78
2021/09/09 09:36:22;;;;;;;16.43;8.67;;;23.80;1.00;;;;;;5031277;28;20466;-78
2021/09/09 09:39:21;;;;;;;22.13;8.50;;;23.80;1.00;;;;;;5029013;28;20423;-78
2021/09/09 09:42:03;;;;;;;16.70;8.10;;;23.90;1.00;;;;;;5030983;28;20494;-77
2021/09/09 09:44:35;;;;;;;13.37;8.40;;;24.10;1.00;;;;;;5031568;28;20421;-77
2021/09/09 09:47:20;;;;;;;14.43;8.47;;;24.10;1.00;;;;;;5023561;28;20467;-77
2021/09/09 09:50:13;;;;;;;15.37;7.90;;;24.20;1.00;;;;;;5014943;28;20424;-77
2021/09/09 09:53:13;;;;;;;15.70;7.10;;;24.30;1.00;;;;;;5019845;28;20446;-77
2021/09/09 09:55:50;;;;;;;30.73;9.10;;;24.40;1.00;;;;;;5011506;28;20457;-77
2021/09/09 09:58:18;;;;;;;54.80;8.80;;;24.60;1.00;;;;;;5030879;28;20429;-77
2021/09/09 10:01:06;;;;;;;16.33;7.13;;;24.60;1.00;;;;;;5030385;28;20785;-77
2021/09/09 10:04:01;;;;;;;12.70;7.50;;;24.60;1.00;;;;;;5027853;28;20411;-77
2021/09/09 10:06:32;;;;;;;9.20;6.63;;;24.70;1.00;;;;;;5029451;28;20425;-77
2021/09/09 10:09:13;;;;;;;12.27;6.93;;;24.90;1.00;;;;;;5014094;28;20757;-77
2021/09/09 10:11:49;;;;;;;23.67;7.47;;;25.00;1.00;;;;;;5024414;28;20456;-81
2021/09/09 10:14:31;;;;;;;9.70;6.47;;;25.00;1.00;;;;;;5011826;28;20440;-77
2021/09/09 10:16:58;;;;;;;13.43;7.00;;;25.10;1.00;;;;;;5016774;28;20477;-77
2021/09/09 10:19:33;;;;;;;16.53;7.40;;;25.20;1.00;;;;;;5031517;28;20430;-78
2021/09/09 10:22:11;;;;;;;11.70;6.93;;;25.30;1.00;;;;;;5032465;28;20769;-77
2021/09/09 10:25:17;;;;;;;20.53;6.40;;;25.30;1.00;;;;;;5032672;28;20868;-78
2021/09/09 10:28:24;;;;;;;11.00;6.70;;;25.40;1.00;;;;;;5011384;28;20434;-78
2021/09/09 10:34:30;;;;;;;9.87;6.80;;;25.50;1.00;;;;;;5024533;28;20810;-78
2021/09/09 10:37:27;;;;;;;12.33;7.10;;;;;;;;;;5028194;28;20522;-78
2021/09/09 10:39:55;;;;;;;11.80;7.03;;;25.70;1.00;;;;;;5014456;28;20842;-78
2021/09/09 10:42:54;;;;;;;10.60;6.77;;;25.80;1.00;;;;;;5023738;28;20903;-78
2021/09/09 10:49:32;;;;;;;21.90;7.77;;;26.00;1.00;;;;;;5031225;28;20512;-78
2021/09/09 10:52:36;;;;;;;16.60;7.93;;;26.10;1.00;;;;;;4987479;28;20782;-78
2021/09/09 10:58:23;;;;;;;15.30;6.60;;;26.20;1.00;;;;;;4994916;28;20427;-78
2021/09/09 11:01:08;;;;;;;23.07;7.07;;;26.30;1.00;;;;;;4991752;28;20430;-78
2021/09/09 11:03:46;;;;;;;9.70;7.20;;;26.40;1.00;;;;;;4988076;28;20174;-79
2021/09/09 11:06:30;;;;;;;12.57;7.07;;;26.50;1.00;;;;;;4994380;28;20987;-79
2021/09/09 11:08:57;;;;;;;15.13;7.43;;;26.60;1.00;;;;;;4994297;28;20521;-79
2021/09/09 11:11:46;;;;;;;9.17;6.80;;;26.70;1.00;;;;;;4994495;28;20886;-78
2021/09/09 11:15:00;;;;;;;10.00;7.50;;;26.90;1.00;;;;;;4994736;28;20431;-78
2021/09/09 11:17:26;;;;;;;12.60;6.60;;;27.00;1.00;;;;;;4994529;28;20484;-78
2021/09/09 11:20:07;;;;;;;10.53;7.27;;;26.90;1.00;;;;;;4994022;28;20444;-78
2021/09/09 11:22:48;;;;;;;12.93;7.20;;;27.00;1.00;;;;;;4994112;28;20179;-78
2021/09/09 11:25:19;;;;;;;13.93;7.40;;;27.00;1.00;;;;;;4993887;28;20934;-78
2021/09/09 11:27:45;;;;;;;10.23;7.20;;;;;;;;;;5013288;28;20434;-78
2021/09/09 11:30:19;;;;;;;15.10;7.50;;;27.10;1.00;;;;;;5033930;28;20424;-78
2021/09/09 11:33:04;;;;;;;12.20;7.53;;;27.10;1.00;;;;;;5031271;28;20431;-78
2021/09/09 11:35:29;;;;;;;14.97;7.77;;;27.20;1.00;;;;;;5031745;28;20481;-78
2021/09/09 11:37:55;;;;;;;18.53;7.97;;;27.30;1.00;;;;;;5029843;28;20427;-78
2021/09/09 11:40:30;;;;;;;11.13;7.70;;;27.30;1.00;;;;;;5034549;28;20420;-78
2021/09/09 11:43:01;;;;;;;15.10;7.83;;;27.50;1.00;;;;;;5022893;28;20197;-78
2021/09/09 11:45:27;;;;;;;11.73;8.07;;;27.50;1.00;;;;;;5034057;28;20415;-78
2021/09/09 11:48:03;;;;;;;11.70;7.50;;;27.50;1.00;;;;;;5027137;28;20452;-78
2021/09/09 11:50:29;;;;;;;16.43;7.63;;;27.60;1.00;;;;;;5035243;28;20162;-78
2021/09/09 11:53:20;;;;;;;15.97;8.70;;;27.60;1.00;;;;;;5023720;28;20426;-78
2021/09/09 11:55:55;;;;;;;13.50;8.07;;;27.70;1.00;;;;;;5034702;28;20264;-78
2021/09/09 11:58:51;;;;;;;17.27;7.83;;;27.60;1.00;;;;;;5034503;28;20438;-78
2021/09/09 12:01:18;;;;;;;13.40;8.33;;;27.90;1.00;;;;;;5035033;28;20455;-77
2021/09/09 12:03:49;;;;;;;16.17;7.90;;;28.00;1.00;;;;;;5029073;28;20439;-77
2021/09/09 12:06:22;;;;;;;19.00;7.30;;;28.10;1.00;;;;;;5020524;28;20511;-77
2021/09/09 12:08:48;;;;;;;15.40;8.33;;;26.50;1.00;;;;;;5015971;28;20426;-77
2021/09/09 12:11:37;;;;;;;13.77;7.30;;;28.40;1.00;;;;;;5033219;28;20484;-77
2021/09/09 12:14:18;;;;;;;16.43;8.70;;;28.40;1.00;;;;;;5029902;28;20521;-77
2021/09/09 12:17:15;;;;;;;13.30;7.83;;;28.30;1.00;;;;;;5034102;28;20463;-78
2021/09/09 12:20:08;;;;;;;16.50;6.90;;;28.30;1.00;;;;;;5047112;28;20437;-78
2021/09/09 12:23:24;;;;;;;13.17;7.50;;;28.20;1.00;;;;;;5050200;28;20430;-79
2021/09/09 12:26:27;;;;;;;11.93;7.60;;;;;;;;;;5051462;28;20475;-78
2021/09/09 12:28:53;;;;;;;11.40;6.80;;;28.20;1.00;;;;;;4993041;28;20487;-79
2021/09/09 12:31:37;;;;;;;10.30;7.87;;;28.30;1.00;;;;;;4987074;28;20543;-78
2021/09/09 12:34:17;;;;;;;14.27;7.50;;;28.30;1.00;;;;;;4989924;28;20221;-78
2021/09/09 12:36:55;;;;;;;12.83;7.33;;;28.30;1.00;;;;;;4992898;28;20926;-78
2021/09/09 12:39:47;;;;;;;13.50;8.00;;;28.40;1.00;;;;;;4992619;28;20531;-77
2021/09/09 12:42:13;;;;;;;10.47;7.17;;;28.50;1.00;;;;;;4991576;28;20455;-78
2021/09/09 12:44:39;;;;;;;10.23;7.57;;;28.70;1.00;;;;;;4992913;28;20411;-78
2021/09/09 12:47:18;;;;;;;12.10;7.30;;;28.70;1.00;;;;;;4991833;28;20889;-78
2021/09/09 12:49:44;;;;;;;11.43;7.57;;;28.80;1.00;;;;;;4991740;28;20416;-78
2021/09/09 12:52:12;;;;;;;10.00;6.80;;;28.80;1.00;;;;;;4991831;28;20822;-78
2021/09/09 12:54:39;;;;;;;13.30;6.70;;;29.00;1.00;;;;;;4991839;28;20521;-77
2021/09/09 12:57:05;;;;;;;10.40;6.40;;;29.10;1.00;;;;;;4973190;28;20477;-77
2021/09/09 12:59:37;;;;;;;15.87;6.43;;;29.10;1.00;;;;;;4970862;28;20427;-78
2021/09/09 13:02:03;;;;;;;10.50;6.43;;;29.10;1.00;;;;;;4980445;28;20478;-78
2021/09/09 13:04:54;;;;;;;8.93;6.50;;;28.90;1.00;;;;;;5027815;28;20752;-78
2021/09/09 13:14:04;;;;;;;10.00;5.80;;;29.00;1.00;;;;;;5033451;28;20399;-77
2021/09/09 13:16:30;;;;;;;10.70;5.83;;;29.10;1.00;;;;;;5033421;28;20449;-77
2021/09/09 13:18:56;;;;;;;8.90;6.13;;;29.20;1.00;;;;;;5033603;28;20190;-77
2021/09/09 13:21:28;;;;;;;10.80;6.10;;;29.20;1.00;;;;;;5034227;28;20186;-78
2021/09/09 13:24:24;;;;;;;13.27;5.30;;;29.20;1.00;;;;;;5031014;28;20182;-78
2021/09/09 13:30:12;;;;;;;10.23;5.97;;;29.30;1.00;;;;;;5033762;28;20416;-77
2021/09/09 13:35:59;;;;;;;9.03;5.60;;;29.50;1.00;;;;;;5033435;28;20637;-78
2021/09/09 13:38:48;;;;;;;8.20;5.47;;;29.50;1.00;;;;;;5033056;28;20453;-79
2021/09/09 13:41:19;;;;;;;8.03;5.70;;;29.50;1.00;;;;;;5031656;28;20190;-77
2021/09/09 13:43:54;;;;;;;11.50;5.20;;;29.70;1.00;;;;;;5027714;28;21030;-78
2021/09/09 13:49:42;;;;;;;5.53;5.03;;;29.90;1.00;;;;;;5015654;28;20402;-77
2021/09/09 13:52:19;;;;;;;10.50;4.80;;;29.70;1.00;;;;;;5018019;28;20397;-77
2021/09/09 13:54:44;;;;;;;7.80;4.63;;;29.60;1.00;;;;;;5033399;28;20508;-77
2021/09/09 13:58:06;;;;;;;9.10;4.97;;;29.50;1.00;;;;;;5023068;28;20469;-76
2021/09/09 14:04:06;;;;;;;8.97;5.30;;;29.70;1.00;;;;;;5033116;28;20409;-78
2021/09/09 14:06:35;;;;;;;13.60;5.60;;;29.70;1.00;;;;;;5033231;28;20388;-77
2021/09/09 14:09:19;;;;;;;9.33;4.60;;;29.50;1.00;;;;;;5025848;28;20413;-79
2021/09/09 14:12:06;;;;;;;9.33;5.70;;;29.40;1.00;;;;;;5018555;28;20424;-78
2021/09/09 14:14:37;;;;;;;16.83;4.70;;;29.30;1.00;;;;;;5028544;28;20437;-76
2021/09/09 14:17:02;;;;;;;6.53;4.60;;;29.20;1.00;;;;;;5037393;28;20917;-76
2021/09/09 14:19:28;;;;;;;12.77;4.77;;;29.00;1.00;;;;;;5037227;28;20468;-76
2021/09/09 14:22:18;;;;;;;8.10;4.20;;;29.00;1.00;;;;;;5037166;28;20210;-77
2021/09/09 14:24:49;;;;;;;13.50;4.70;;;28.80;1.00;;;;;;5036643;28;20497;-77
2021/09/09 14:27:19;;;;;;;17.10;5.03;;;28.80;1.00;;;;;;5036629;28;20493;-77
2021/09/09 14:29:49;;;;;;;7.00;3.37;;;28.80;1.00;;;;;;5036829;28;20427;-77
2021/09/09 14:35:36;;;;;;;11.30;4.30;;;28.60;1.00;;;;;;5016860;28;20390;-78
2021/09/09 14:38:42;;;;;;;6.20;3.60;;;28.50;1.00;;;;;;5017202;28;20415;-78
2021/09/09 14:41:19;;;;;;;5.33;4.03;;;28.70;1.00;;;;;;5023694;28;20428;-77
2021/09/09 14:43:54;;;;;;;10.30;3.50;;;28.70;1.00;;;;;;5035800;28;20823;-77
2021/09/09 14:46:37;;;;;;;5.40;4.47;;;28.80;1.00;;;;;;5036933;28;20764;-78
2021/09/09 14:52:24;;;;;;;8.93;5.10;;;28.70;1.00;;;;;;5016676;28;20493;-73
2021/09/09 14:54:50;;;;;;;6.77;4.47;;;28.80;1.00;;;;;;5030753;28;20413;-78
2021/09/09 15:00:42;;;;;;;4.90;4.40;;;28.80;1.00;;;;;;5036130;28;20198;-85
2021/09/09 15:06:30;;;;;;;5.20;4.33;;;29.70;1.00;;;;;;5015896;28;20463;-82
2021/09/09 15:12:18;;;;;;;11.60;4.63;;;30.60;1.00;;;;;;5028948;28;20206;-83
2021/09/09 15:18:05;;;;;;;6.13;3.20;;;32.80;1.00;;;;;;5034485;28;20568;-83
2021/09/09 15:20:43;;;;;;;6.07;3.80;;;32.80;1.00;;;;;;5036052;28;20404;-83
2021/09/09 15:29:52;;;;;;;16.33;3.53;;;35.50;99.90;;;;;;5015591;28;20435;-82
2021/09/09 15:35:43;;;;;;;3.93;2.27;;;35.30;99.90;;;;;;5033256;28;20183;-80
2021/09/09 15:38:30;;;;;;;6.53;2.50;;;35.60;99.90;;;;;;5031052;28;20503;-80
2021/09/09 15:44:18;;;;;;;5.90;3.00;;;35.10;99.90;;;;;;5027843;28;20414;-85
2021/09/09 15:50:06;;;;;;;4.77;2.63;;;35.80;99.90;;;;;;5035932;28;20222;-87